sensor_id;sensor_type;location;lat;lon;timestamp;P1;durP1;ratioP1;P2;durP2;ratioP2
47657;SDS011;33958;48.404;10.598;2022-07-30T00:01:31;0.10;;;0.10;;
47657;SDS011;33958;48.404;10.598;2022-07-30T00:04:01;0.00;;;0.00;;
47657;SDS011;33958;48.404;10.598;2022-07-30T00:06:28;0.17;;;0.10;;
47657;SDS011;33958;48.404;10.598;2022-07-30T00:08:55;1.95;;;0.47;;
47657;SDS011;33958;48.404;10.598;2022-07-30T00:11:22;0.10;;;0.10;;
47657;SDS011;33958;48.404;10.598;2022-07-30T00:13:53;0.00;;;0.00;;
47657;SDS011;33958;48.404;10.598;2022-07-30T00:16:21;0.28;;;0.28;;
47657;SDS011;33958;48.404;10.598;2022-07-30T00:18:48;0.28;;;0.28;;
47657;SDS011;33958;48.404;10.598;2022-07-30T00:21:34;0.00;;;0.00;;
47657;SDS011;33958;48.404;10.598;2022-07-30T00:24:04;0.20;;;0.20;;
47657;SDS011;33958;48.404;10.598;2022-07-30T00:26:32;0.05;;;0.05;;
47657;SDS011;33958;48.404;10.598;2022-07-30T00:28:59;0.00;;;0.00;;
47657;SDS011;33958;48.404;10.598;2022-07-30T00:31:26;0.32;;;0.32;;
47657;SDS011;33958;48.404;10.598;2022-07-30T00:33:52;1.85;;;0.80;;
47657;SDS011;33958;48.404;10.598;2022-07-30T00:36:20;0.10;;;0.10;;
47657;SDS011;33958;48.404;10.598;2022-07-30T00:38:46;1.98;;;0.55;;
47657;SDS011;33958;48.404;10.598;2022-07-30T00:41:13;0.65;;;0.52;;
47657;SDS011;33958;48.404;10.598;2022-07-30T00:43:41;0.10;;;0.10;;
47657;SDS011;33958;48.404;10.598;2022-07-30T00:46:08;0.10;;;0.10;;
47657;SDS011;33958;48.404;10.598;2022-07-30T00:48:34;0.43;;;0.30;;
47657;SDS011;33958;48.404;10.598;2022-07-30T00:51:02;0.10;;;0.10;;
47657;SDS011;33958;48.404;10.598;2022-07-30T00:53:29;0.10;;;0.10;;
47657;SDS011;33958;48.404;10.598;2022-07-30T00:55:56;0.10;;;0.10;;
47657;SDS011;33958;48.404;10.598;2022-07-30T00:58:22;0.32;;;0.32;;
47657;SDS011;33958;48.404;10.598;2022-07-30T01:00:50;0.20;;;0.20;;
47657;SDS011;33958;48.404;10.598;2022-07-30T01:03:17;0.10;;;0.10;;
47657;SDS011;33958;48.404;10.598;2022-07-30T01:05:44;0.43;;;0.43;;
47657;SDS011;33958;48.404;10.598;2022-07-30T01:08:11;0.20;;;0.20;;
47657;SDS011;33958;48.404;10.598;2022-07-30T01:10:38;0.08;;;0.08;;
47657;SDS011;33958;48.404;10.598;2022-07-30T01:13:05;0.10;;;0.10;;
47657;SDS011;33958;48.404;10.598;2022-07-30T01:15:33;0.57;;;0.35;;
47657;SDS011;33958;48.404;10.598;2022-07-30T01:18:00;0.32;;;0.32;;
47657;SDS011;33958;48.404;10.598;2022-07-30T01:20:32;0.32;;;0.32;;
47657;SDS011;33958;48.404;10.598;2022-07-30T01:23:07;0.03;;;0.03;;
47657;SDS011;33958;48.404;10.598;2022-07-30T01:25:45;0.40;;;0.20;;
47657;SDS011;33958;48.404;10.598;2022-07-30T01:28:26;0.10;;;0.10;;
47657;SDS011;33958;48.404;10.598;2022-07-30T01:30:57;0.10;;;0.10;;
47657;SDS011;33958;48.404;10.598;2022-07-30T01:33:27;0.20;;;0.20;;
47657;SDS011;33958;48.404;10.598;2022-07-30T01:35:55;0.38;;;0.30;;
47657;SDS011;33958;48.404;10.598;2022-07-30T01:38:23;0.08;;;0.08;;
47657;SDS011;33958;48.404;10.598;2022-07-30T01:41:00;0.30;;;0.30;;
47657;SDS011;33958;48.404;10.598;2022-07-30T01:43:28;0.30;;;0.30;;
47657;SDS011;33958;48.404;10.598;2022-07-30T01:45:58;0.28;;;0.15;;
47657;SDS011;33958;48.404;10.598;2022-07-30T01:48:27;2.83;;;0.20;;
47657;SDS011;33958;48.404;10.598;2022-07-30T01:50:57;0.55;;;0.38;;
47657;SDS011;33958;48.404;10.598;2022-07-30T01:53:28;0.20;;;0.20;;
47657;SDS011;33958;48.404;10.598;2022-07-30T01:58:26;0.10;;;0.10;;
47657;SDS011;33958;48.404;10.598;2022-07-30T02:00:56;0.10;;;0.10;;
47657;SDS011;33958;48.404;10.598;2022-07-30T02:03:24;0.20;;;0.20;;
47657;SDS011;33958;48.404;10.598;2022-07-30T02:06:03;0.25;;;0.25;;
47657;SDS011;33958;48.404;10.598;2022-07-30T02:08:39;0.15;;;0.13;;
47657;SDS011;33958;48.404;10.598;2022-07-30T02:11:11;0.57;;;0.38;;
47657;SDS011;33958;48.404;10.598;2022-07-30T02:13:49;0.00;;;0.00;;
47657;SDS011;33958;48.404;10.598;2022-07-30T02:16:23;0.15;;;0.13;;
47657;SDS011;33958;48.404;10.598;2022-07-30T02:18:55;0.10;;;0.10;;
47657;SDS011;33958;48.404;10.598;2022-07-30T02:21:33;0.05;;;0.05;;
47657;SDS011;33958;48.404;10.598;2022-07-30T02:24:11;0.20;;;0.20;;
47657;SDS011;33958;48.404;10.598;2022-07-30T02:26:43;0.00;;;0.00;;
47657;SDS011;33958;48.404;10.598;2022-07-30T02:29:15;0.10;;;0.10;;
47657;SDS011;33958;48.404;10.598;2022-07-30T02:31:44;0.10;;;0.10;;
47657;SDS011;33958;48.404;10.598;2022-07-30T02:34:12;0.25;;;0.20;;
47657;SDS011;33958;48.404;10.598;2022-07-30T02:36:40;0.00;;;0.00;;
47657;SDS011;33958;48.404;10.598;2022-07-30T02:39:09;0.03;;;0.03;;
47657;SDS011;33958;48.404;10.598;2022-07-30T02:41:38;0.10;;;0.10;;
47657;SDS011;33958;48.404;10.598;2022-07-30T02:44:11;0.15;;;0.10;;
47657;SDS011;33958;48.404;10.598;2022-07-30T02:46:42;0.15;;;0.13;;
47657;SDS011;33958;48.404;10.598;2022-07-30T02:49:11;0.15;;;0.13;;
47657;SDS011;33958;48.404;10.598;2022-07-30T02:51:40;1.15;;;0.43;;
47657;SDS011;33958;48.404;10.598;2022-07-30T02:54:08;0.28;;;0.28;;
47657;SDS011;33958;48.404;10.598;2022-07-30T02:56:38;0.20;;;0.20;;
47657;SDS011;33958;48.404;10.598;2022-07-30T02:59:06;0.32;;;0.32;;
47657;SDS011;33958;48.404;10.598;2022-07-30T03:01:35;0.30;;;0.30;;
47657;SDS011;33958;48.404;10.598;2022-07-30T03:04:02;0.30;;;0.20;;
47657;SDS011;33958;48.404;10.598;2022-07-30T03:06:31;0.15;;;0.15;;
47657;SDS011;33958;48.404;10.598;2022-07-30T03:09:01;0.35;;;0.30;;
47657;SDS011;33958;48.404;10.598;2022-07-30T03:11:29;0.30;;;0.30;;
47657;SDS011;33958;48.404;10.598;2022-07-30T03:13:58;0.08;;;0.08;;
47657;SDS011;33958;48.404;10.598;2022-07-30T03:16:25;0.43;;;0.35;;
47657;SDS011;33958;48.404;10.598;2022-07-30T03:18:55;0.47;;;0.35;;
47657;SDS011;33958;48.404;10.598;2022-07-30T03:21:24;0.13;;;0.13;;
47657;SDS011;33958;48.404;10.598;2022-07-30T03:23:53;2.53;;;0.32;;
47657;SDS011;33958;48.404;10.598;2022-07-30T03:26:21;0.90;;;0.55;;
47657;SDS011;33958;48.404;10.598;2022-07-30T03:28:50;0.00;;;0.00;;
47657;SDS011;33958;48.404;10.598;2022-07-30T03:31:18;0.20;;;0.20;;
47657;SDS011;33958;48.404;10.598;2022-07-30T03:33:46;2.47;;;0.85;;
47657;SDS011;33958;48.404;10.598;2022-07-30T03:36:14;0.38;;;0.35;;
47657;SDS011;33958;48.404;10.598;2022-07-30T03:38:41;0.05;;;0.05;;
47657;SDS011;33958;48.404;10.598;2022-07-30T03:41:10;0.00;;;0.00;;
47657;SDS011;33958;48.404;10.598;2022-07-30T03:43:37;0.10;;;0.10;;
47657;SDS011;33958;48.404;10.598;2022-07-30T03:46:05;0.00;;;0.00;;
47657;SDS011;33958;48.404;10.598;2022-07-30T03:48:34;0.10;;;0.10;;
47657;SDS011;33958;48.404;10.598;2022-07-30T03:51:02;0.10;;;0.10;;
47657;SDS011;33958;48.404;10.598;2022-07-30T03:53:32;0.00;;;0.00;;
47657;SDS011;33958;48.404;10.598;2022-07-30T03:55:59;0.15;;;0.15;;
47657;SDS011;33958;48.404;10.598;2022-07-30T03:58:27;0.00;;;0.00;;
47657;SDS011;33958;48.404;10.598;2022-07-30T04:01:01;0.47;;;0.30;;
47657;SDS011;33958;48.404;10.598;2022-07-30T04:03:28;0.10;;;0.10;;
47657;SDS011;33958;48.404;10.598;2022-07-30T04:05:57;0.55;;;0.28;;
47657;SDS011;33958;48.404;10.598;2022-07-30T04:08:24;0.00;;;0.00;;
47657;SDS011;33958;48.404;10.598;2022-07-30T04:10:53;0.20;;;0.20;;
47657;SDS011;33958;48.404;10.598;2022-07-30T04:13:20;0.17;;;0.17;;
47657;SDS011;33958;48.404;10.598;2022-07-30T04:15:50;0.15;;;0.15;;
47657;SDS011;33958;48.404;10.598;2022-07-30T04:18:54;1.20;;;0.68;;
47657;SDS011;33958;48.404;10.598;2022-07-30T04:21:25;0.32;;;0.32;;
47657;SDS011;33958;48.404;10.598;2022-07-30T04:23:55;0.10;;;0.10;;
47657;SDS011;33958;48.404;10.598;2022-07-30T04:26:29;0.25;;;0.25;;
47657;SDS011;33958;48.404;10.598;2022-07-30T04:28:58;0.00;;;0.00;;
47657;SDS011;33958;48.404;10.598;2022-07-30T04:31:27;0.25;;;0.25;;
47657;SDS011;33958;48.404;10.598;2022-07-30T04:33:55;0.70;;;0.32;;
47657;SDS011;33958;48.404;10.598;2022-07-30T04:36:31;0.52;;;0.20;;
47657;SDS011;33958;48.404;10.598;2022-07-30T04:38:59;0.43;;;0.10;;
47657;SDS011;33958;48.404;10.598;2022-07-30T04:41:26;0.10;;;0.10;;
47657;SDS011;33958;48.404;10.598;2022-07-30T04:44:13;0.38;;;0.38;;
47657;SDS011;33958;48.404;10.598;2022-07-30T04:46:40;0.00;;;0.00;;
47657;SDS011;33958;48.404;10.598;2022-07-30T04:49:07;0.90;;;0.40;;
47657;SDS011;33958;48.404;10.598;2022-07-30T04:51:36;0.00;;;0.00;;
47657;SDS011;33958;48.404;10.598;2022-07-30T04:54:04;0.45;;;0.45;;
47657;SDS011;33958;48.404;10.598;2022-07-30T04:56:41;0.30;;;0.30;;
47657;SDS011;33958;48.404;10.598;2022-07-30T04:59:20;0.17;;;0.17;;
47657;SDS011;33958;48.404;10.598;2022-07-30T05:01:49;0.35;;;0.32;;
47657;SDS011;33958;48.404;10.598;2022-07-30T05:04:17;0.00;;;0.00;;
47657;SDS011;33958;48.404;10.598;2022-07-30T05:06:45;0.00;;;0.00;;
47657;SDS011;33958;48.404;10.598;2022-07-30T05:09:13;0.40;;;0.40;;
47657;SDS011;33958;48.404;10.598;2022-07-30T05:11:41;0.00;;;0.00;;
47657;SDS011;33958;48.404;10.598;2022-07-30T05:14:14;0.00;;;0.00;;
47657;SDS011;33958;48.404;10.598;2022-07-30T05:16:41;2.28;;;0.40;;
47657;SDS011;33958;48.404;10.598;2022-07-30T05:19:10;0.05;;;0.05;;
47657;SDS011;33958;48.404;10.598;2022-07-30T05:21:38;0.30;;;0.30;;
47657;SDS011;33958;48.404;10.598;2022-07-30T05:24:05;0.10;;;0.10;;
47657;SDS011;33958;48.404;10.598;2022-07-30T05:26:32;0.10;;;0.10;;
47657;SDS011;33958;48.404;10.598;2022-07-30T05:28:59;0.30;;;0.30;;
47657;SDS011;33958;48.404;10.598;2022-07-30T05:31:32;0.85;;;0.52;;
47657;SDS011;33958;48.404;10.598;2022-07-30T05:33:59;0.45;;;0.38;;
47657;SDS011;33958;48.404;10.598;2022-07-30T05:36:28;0.10;;;0.10;;
47657;SDS011;33958;48.404;10.598;2022-07-30T05:38:56;0.32;;;0.32;;
47657;SDS011;33958;48.404;10.598;2022-07-30T05:41:23;0.35;;;0.25;;
47657;SDS011;33958;48.404;10.598;2022-07-30T05:43:58;0.63;;;0.15;;
47657;SDS011;33958;48.404;10.598;2022-07-30T05:46:26;0.10;;;0.10;;
47657;SDS011;33958;48.404;10.598;2022-07-30T05:48:53;2.20;;;0.77;;
47657;SDS011;33958;48.404;10.598;2022-07-30T05:51:20;0.57;;;0.52;;
47657;SDS011;33958;48.404;10.598;2022-07-30T05:53:47;0.73;;;0.65;;
47657;SDS011;33958;48.404;10.598;2022-07-30T05:56:15;0.25;;;0.22;;
47657;SDS011;33958;48.404;10.598;2022-07-30T05:58:42;0.10;;;0.10;;
47657;SDS011;33958;48.404;10.598;2022-07-30T06:01:09;0.20;;;0.20;;
47657;SDS011;33958;48.404;10.598;2022-07-30T06:03:37;1.33;;;0.50;;
47657;SDS011;33958;48.404;10.598;2022-07-30T06:06:04;0.15;;;0.15;;
47657;SDS011;33958;48.404;10.598;2022-07-30T06:08:33;0.00;;;0.00;;
47657;SDS011;33958;48.404;10.598;2022-07-30T06:11:00;0.45;;;0.30;;
47657;SDS011;33958;48.404;10.598;2022-07-30T06:13:27;0.80;;;0.57;;
47657;SDS011;33958;48.404;10.598;2022-07-30T06:15:54;0.63;;;0.50;;
47657;SDS011;33958;48.404;10.598;2022-07-30T06:18:21;0.30;;;0.30;;
47657;SDS011;33958;48.404;10.598;2022-07-30T06:20:49;0.63;;;0.60;;
47657;SDS011;33958;48.404;10.598;2022-07-30T06:23:17;0.30;;;0.30;;
47657;SDS011;33958;48.404;10.598;2022-07-30T06:25:45;0.10;;;0.10;;
47657;SDS011;33958;48.404;10.598;2022-07-30T06:28:13;3.35;;;0.85;;
47657;SDS011;33958;48.404;10.598;2022-07-30T06:31:01;0.50;;;0.38;;
47657;SDS011;33958;48.404;10.598;2022-07-30T06:33:28;12.43;;;8.45;;
47657;SDS011;33958;48.404;10.598;2022-07-30T06:35:55;11.98;;;7.93;;
47657;SDS011;33958;48.404;10.598;2022-07-30T06:38:22;14.82;;;6.50;;
47657;SDS011;33958;48.404;10.598;2022-07-30T06:40:49;13.15;;;6.15;;
47657;SDS011;33958;48.404;10.598;2022-07-30T06:43:16;11.52;;;6.57;;
47657;SDS011;33958;48.404;10.598;2022-07-30T06:45:44;11.88;;;6.90;;
47657;SDS011;33958;48.404;10.598;2022-07-30T06:48:11;10.70;;;7.40;;
47657;SDS011;33958;48.404;10.598;2022-07-30T06:50:38;11.70;;;6.30;;
47657;SDS011;33958;48.404;10.598;2022-07-30T06:53:06;8.73;;;6.00;;
47657;SDS011;33958;48.404;10.598;2022-07-30T06:55:33;10.15;;;6.38;;
47657;SDS011;33958;48.404;10.598;2022-07-30T06:58:00;10.95;;;6.00;;
47657;SDS011;33958;48.404;10.598;2022-07-30T07:00:28;10.88;;;6.30;;
47657;SDS011;33958;48.404;10.598;2022-07-30T07:02:55;8.25;;;5.22;;
47657;SDS011;33958;48.404;10.598;2022-07-30T07:05:22;9.50;;;5.82;;
47657;SDS011;33958;48.404;10.598;2022-07-30T07:07:50;9.27;;;5.93;;
47657;SDS011;33958;48.404;10.598;2022-07-30T07:10:24;10.30;;;5.78;;
47657;SDS011;33958;48.404;10.598;2022-07-30T07:12:52;8.68;;;5.18;;
47657;SDS011;33958;48.404;10.598;2022-07-30T07:15:19;8.45;;;5.40;;
47657;SDS011;33958;48.404;10.598;2022-07-30T07:18:02;8.35;;;4.95;;
47657;SDS011;33958;48.404;10.598;2022-07-30T07:20:29;11.10;;;4.75;;
47657;SDS011;33958;48.404;10.598;2022-07-30T07:22:57;8.45;;;5.10;;
47657;SDS011;33958;48.404;10.598;2022-07-30T07:25:24;11.63;;;5.05;;
47657;SDS011;33958;48.404;10.598;2022-07-30T07:27:51;7.55;;;4.72;;
47657;SDS011;33958;48.404;10.598;2022-07-30T07:30:38;10.40;;;4.95;;
47657;SDS011;33958;48.404;10.598;2022-07-30T07:33:05;7.93;;;5.13;;
47657;SDS011;33958;48.404;10.598;2022-07-30T07:35:33;11.43;;;4.82;;
47657;SDS011;33958;48.404;10.598;2022-07-30T07:38:14;11.23;;;4.75;;
47657;SDS011;33958;48.404;10.598;2022-07-30T07:40:41;10.05;;;5.25;;
47657;SDS011;33958;48.404;10.598;2022-07-30T07:43:08;10.75;;;5.07;;
47657;SDS011;33958;48.404;10.598;2022-07-30T07:45:35;10.65;;;5.32;;
47657;SDS011;33958;48.404;10.598;2022-07-30T07:48:02;12.25;;;5.43;;
47657;SDS011;33958;48.404;10.598;2022-07-30T07:50:30;13.85;;;4.75;;
47657;SDS011;33958;48.404;10.598;2022-07-30T07:52:57;8.02;;;4.70;;
47657;SDS011;33958;48.404;10.598;2022-07-30T07:55:24;8.07;;;4.10;;
47657;SDS011;33958;48.404;10.598;2022-07-30T07:57:51;8.05;;;4.38;;
47657;SDS011;33958;48.404;10.598;2022-07-30T08:00:19;9.77;;;4.82;;
47657;SDS011;33958;48.404;10.598;2022-07-30T08:02:46;7.93;;;4.78;;
47657;SDS011;33958;48.404;10.598;2022-07-30T08:05:14;8.85;;;5.28;;
47657;SDS011;33958;48.404;10.598;2022-07-30T08:07:41;10.93;;;4.70;;
47657;SDS011;33958;48.404;10.598;2022-07-30T08:10:10;10.50;;;4.88;;
47657;SDS011;33958;48.404;10.598;2022-07-30T08:12:39;9.47;;;4.57;;
47657;SDS011;33958;48.404;10.598;2022-07-30T08:15:06;11.00;;;4.95;;
47657;SDS011;33958;48.404;10.598;2022-07-30T08:17:40;10.85;;;5.10;;
47657;SDS011;33958;48.404;10.598;2022-07-30T08:20:13;9.90;;;5.15;;
47657;SDS011;33958;48.404;10.598;2022-07-30T08:22:41;8.18;;;4.93;;
47657;SDS011;33958;48.404;10.598;2022-07-30T08:25:09;7.95;;;4.30;;
47657;SDS011;33958;48.404;10.598;2022-07-30T08:27:47;12.77;;;4.43;;
47657;SDS011;33958;48.404;10.598;2022-07-30T08:30:14;10.45;;;4.40;;
47657;SDS011;33958;48.404;10.598;2022-07-30T08:32:41;9.15;;;4.10;;
47657;SDS011;33958;48.404;10.598;2022-07-30T08:35:08;8.02;;;4.53;;
47657;SDS011;33958;48.404;10.598;2022-07-30T08:37:36;8.68;;;3.08;;
47657;SDS011;33958;48.404;10.598;2022-07-30T08:40:06;8.68;;;2.78;;
47657;SDS011;33958;48.404;10.598;2022-07-30T08:42:34;7.35;;;3.20;;
47657;SDS011;33958;48.404;10.598;2022-07-30T08:45:00;9.10;;;3.10;;
47657;SDS011;33958;48.404;10.598;2022-07-30T08:47:32;7.32;;;3.10;;
47657;SDS011;33958;48.404;10.598;2022-07-30T08:50:00;6.75;;;2.92;;
47657;SDS011;33958;48.404;10.598;2022-07-30T08:52:31;8.50;;;2.75;;
47657;SDS011;33958;48.404;10.598;2022-07-30T08:54:59;9.43;;;3.15;;
47657;SDS011;33958;48.404;10.598;2022-07-30T08:57:29;11.35;;;3.15;;
47657;SDS011;33958;48.404;10.598;2022-07-30T08:59:59;6.55;;;2.53;;
47657;SDS011;33958;48.404;10.598;2022-07-30T09:02:29;7.28;;;3.15;;
47657;SDS011;33958;48.404;10.598;2022-07-30T09:04:57;6.28;;;2.65;;
47657;SDS011;33958;48.404;10.598;2022-07-30T09:07:24;3.88;;;2.05;;
47657;SDS011;33958;48.404;10.598;2022-07-30T09:09:51;6.32;;;2.65;;
47657;SDS011;33958;48.404;10.598;2022-07-30T09:17:50;4.63;;;2.55;;
47657;SDS011;33958;48.404;10.598;2022-07-30T09:20:26;8.43;;;4.10;;
47657;SDS011;33958;48.404;10.598;2022-07-30T09:22:57;5.72;;;2.58;;
47657;SDS011;33958;48.404;10.598;2022-07-30T09:27:57;6.10;;;2.70;;
47657;SDS011;33958;48.404;10.598;2022-07-30T09:30:24;9.65;;;2.70;;
47657;SDS011;33958;48.404;10.598;2022-07-30T09:32:57;4.07;;;2.40;;
47657;SDS011;33958;48.404;10.598;2022-07-30T09:35:25;6.13;;;2.35;;
47657;SDS011;33958;48.404;10.598;2022-07-30T09:37:58;4.65;;;2.00;;
47657;SDS011;33958;48.404;10.598;2022-07-30T09:40:31;8.27;;;2.30;;
47657;SDS011;33958;48.404;10.598;2022-07-30T09:43:02;5.68;;;1.70;;
47657;SDS011;33958;48.404;10.598;2022-07-30T09:45:57;8.60;;;2.50;;
47657;SDS011;33958;48.404;10.598;2022-07-30T09:48:26;4.82;;;2.10;;
47657;SDS011;33958;48.404;10.598;2022-07-30T09:50:54;6.00;;;2.55;;
47657;SDS011;33958;48.404;10.598;2022-07-30T09:53:22;4.43;;;1.80;;
47657;SDS011;33958;48.404;10.598;2022-07-30T09:55:50;2.97;;;1.92;;
47657;SDS011;33958;48.404;10.598;2022-07-30T09:58:17;6.97;;;2.10;;
47657;SDS011;33958;48.404;10.598;2022-07-30T10:00:55;4.95;;;1.85;;
47657;SDS011;33958;48.404;10.598;2022-07-30T10:03:25;4.47;;;1.65;;
47657;SDS011;33958;48.404;10.598;2022-07-30T10:06:03;3.38;;;1.40;;
47657;SDS011;33958;48.404;10.598;2022-07-30T10:08:37;4.20;;;1.70;;
47657;SDS011;33958;48.404;10.598;2022-07-30T10:11:08;3.55;;;1.60;;
47657;SDS011;33958;48.404;10.598;2022-07-30T10:13:38;4.38;;;1.73;;
47657;SDS011;33958;48.404;10.598;2022-07-30T10:16:10;2.53;;;1.70;;
47657;SDS011;33958;48.404;10.598;2022-07-30T10:18:39;3.55;;;1.70;;
47657;SDS011;33958;48.404;10.598;2022-07-30T10:21:09;3.42;;;1.40;;
47657;SDS011;33958;48.404;10.598;2022-07-30T10:23:42;5.30;;;1.90;;
47657;SDS011;33958;48.404;10.598;2022-07-30T10:26:10;5.00;;;2.08;;
47657;SDS011;33958;48.404;10.598;2022-07-30T10:28:44;4.78;;;1.75;;
47657;SDS011;33958;48.404;10.598;2022-07-30T10:31:14;4.68;;;1.98;;
47657;SDS011;33958;48.404;10.598;2022-07-30T10:34:01;3.72;;;2.10;;
47657;SDS011;33958;48.404;10.598;2022-07-30T10:36:28;3.50;;;1.80;;
47657;SDS011;33958;48.404;10.598;2022-07-30T10:38:57;4.90;;;1.88;;
47657;SDS011;33958;48.404;10.598;2022-07-30T10:41:36;5.38;;;1.83;;
47657;SDS011;33958;48.404;10.598;2022-07-30T10:47:04;5.50;;;2.15;;
47657;SDS011;33958;48.404;10.598;2022-07-30T10:49:35;4.85;;;2.00;;
47657;SDS011;33958;48.404;10.598;2022-07-30T10:52:08;4.38;;;1.80;;
47657;SDS011;33958;48.404;10.598;2022-07-30T10:54:36;4.47;;;2.10;;
47657;SDS011;33958;48.404;10.598;2022-07-30T11:02:29;3.67;;;1.85;;
47657;SDS011;33958;48.404;10.598;2022-07-30T11:07:52;3.20;;;1.77;;
47657;SDS011;33958;48.404;10.598;2022-07-30T11:10:33;3.80;;;1.90;;
47657;SDS011;33958;48.404;10.598;2022-07-30T11:13:05;5.18;;;2.22;;
47657;SDS011;33958;48.404;10.598;2022-07-30T11:18:23;3.33;;;1.95;;
47657;SDS011;33958;48.404;10.598;2022-07-30T11:21:13;3.55;;;2.13;;
47657;SDS011;33958;48.404;10.598;2022-07-30T11:23:47;5.35;;;2.00;;
47657;SDS011;33958;48.404;10.598;2022-07-30T11:29:06;2.80;;;1.65;;
47657;SDS011;33958;48.404;10.598;2022-07-30T11:32:22;6.63;;;2.00;;
47657;SDS011;33958;48.404;10.598;2022-07-30T11:34:53;4.57;;;1.60;;
47657;SDS011;33958;48.404;10.598;2022-07-30T11:41:15;3.67;;;2.00;;
47657;SDS011;33958;48.404;10.598;2022-07-30T11:49:02;3.67;;;1.90;;
47657;SDS011;33958;48.404;10.598;2022-07-30T11:51:40;3.25;;;2.00;;
47657;SDS011;33958;48.404;10.598;2022-07-30T11:54:08;3.53;;;1.50;;
47657;SDS011;33958;48.404;10.598;2022-07-30T11:56:46;6.05;;;2.20;;
47657;SDS011;33958;48.404;10.598;2022-07-30T11:59:29;3.20;;;1.80;;
47657;SDS011;33958;48.404;10.598;2022-07-30T12:01:56;4.57;;;1.75;;
47657;SDS011;33958;48.404;10.598;2022-07-30T12:04:27;3.55;;;1.75;;
47657;SDS011;33958;48.404;10.598;2022-07-30T12:06:54;3.85;;;1.80;;
47657;SDS011;33958;48.404;10.598;2022-07-30T12:09:22;7.68;;;1.80;;
47657;SDS011;33958;48.404;10.598;2022-07-30T12:11:54;3.88;;;1.55;;
47657;SDS011;33958;48.404;10.598;2022-07-30T12:14:22;5.28;;;1.88;;
47657;SDS011;33958;48.404;10.598;2022-07-30T12:16:50;3.90;;;1.70;;
47657;SDS011;33958;48.404;10.598;2022-07-30T12:19:18;4.47;;;1.50;;
47657;SDS011;33958;48.404;10.598;2022-07-30T12:21:45;3.40;;;1.50;;
47657;SDS011;33958;48.404;10.598;2022-07-30T12:24:22;2.85;;;1.63;;
47657;SDS011;33958;48.404;10.598;2022-07-30T12:26:50;3.60;;;1.70;;
47657;SDS011;33958;48.404;10.598;2022-07-30T12:29:17;6.85;;;1.70;;
47657;SDS011;33958;48.404;10.598;2022-07-30T12:31:44;4.85;;;1.65;;
47657;SDS011;33958;48.404;10.598;2022-07-30T12:34:18;3.05;;;1.70;;
47657;SDS011;33958;48.404;10.598;2022-07-30T12:36:46;3.33;;;1.63;;
47657;SDS011;33958;48.404;10.598;2022-07-30T12:39:20;2.40;;;1.30;;
47657;SDS011;33958;48.404;10.598;2022-07-30T12:41:49;3.50;;;1.50;;
47657;SDS011;33958;48.404;10.598;2022-07-30T12:47:20;2.22;;;1.55;;
47657;SDS011;33958;48.404;10.598;2022-07-30T12:49:54;2.83;;;1.30;;
47657;SDS011;33958;48.404;10.598;2022-07-30T12:52:28;6.13;;;1.58;;
47657;SDS011;33958;48.404;10.598;2022-07-30T12:55:03;4.97;;;1.55;;
47657;SDS011;33958;48.404;10.598;2022-07-30T13:00:48;2.58;;;1.30;;
47657;SDS011;33958;48.404;10.598;2022-07-30T13:03:23;9.38;;;2.03;;
47657;SDS011;33958;48.404;10.598;2022-07-30T13:05:53;1.85;;;1.30;;
47657;SDS011;33958;48.404;10.598;2022-07-30T13:11:10;2.47;;;1.38;;
47657;SDS011;33958;48.404;10.598;2022-07-30T13:13:37;3.53;;;1.58;;
47657;SDS011;33958;48.404;10.598;2022-07-30T13:16:04;2.92;;;1.45;;
47657;SDS011;33958;48.404;10.598;2022-07-30T13:18:33;3.45;;;1.20;;
47657;SDS011;33958;48.404;10.598;2022-07-30T13:21:01;5.47;;;1.45;;
47657;SDS011;33958;48.404;10.598;2022-07-30T13:23:29;3.20;;;1.00;;
47657;SDS011;33958;48.404;10.598;2022-07-30T13:25:56;4.47;;;1.33;;
47657;SDS011;33958;48.404;10.598;2022-07-30T13:28:23;3.78;;;1.33;;
47657;SDS011;33958;48.404;10.598;2022-07-30T13:30:51;4.72;;;1.38;;
47657;SDS011;33958;48.404;10.598;2022-07-30T13:33:17;1.75;;;1.35;;
47657;SDS011;33958;48.404;10.598;2022-07-30T13:35:45;3.92;;;1.40;;
47657;SDS011;33958;48.404;10.598;2022-07-30T13:38:12;9.25;;;1.95;;
47657;SDS011;33958;48.404;10.598;2022-07-30T13:40:40;2.80;;;1.20;;
47657;SDS011;33958;48.404;10.598;2022-07-30T13:43:07;3.17;;;1.35;;
47657;SDS011;33958;48.404;10.598;2022-07-30T13:45:35;2.80;;;1.52;;
47657;SDS011;33958;48.404;10.598;2022-07-30T13:48:02;3.10;;;1.30;;
47657;SDS011;33958;48.404;10.598;2022-07-30T13:50:29;3.15;;;1.23;;
47657;SDS011;33958;48.404;10.598;2022-07-30T13:52:57;2.55;;;1.15;;
47657;SDS011;33958;48.404;10.598;2022-07-30T13:55:27;2.70;;;1.30;;
47657;SDS011;33958;48.404;10.598;2022-07-30T13:57:55;4.97;;;1.50;;
47657;SDS011;33958;48.404;10.598;2022-07-30T14:00:22;2.85;;;1.25;;
47657;SDS011;33958;48.404;10.598;2022-07-30T14:02:51;3.22;;;1.30;;
47657;SDS011;33958;48.404;10.598;2022-07-30T14:05:18;4.43;;;1.60;;
47657;SDS011;33958;48.404;10.598;2022-07-30T14:07:44;3.92;;;1.20;;
47657;SDS011;33958;48.404;10.598;2022-07-30T14:10:11;3.28;;;1.55;;
47657;SDS011;33958;48.404;10.598;2022-07-30T14:12:38;3.38;;;1.08;;
47657;SDS011;33958;48.404;10.598;2022-07-30T14:15:05;1.73;;;1.17;;
47657;SDS011;33958;48.404;10.598;2022-07-30T14:17:34;3.03;;;1.10;;
47657;SDS011;33958;48.404;10.598;2022-07-30T14:20:01;1.13;;;1.00;;
47657;SDS011;33958;48.404;10.598;2022-07-30T14:22:29;2.22;;;1.15;;
47657;SDS011;33958;48.404;10.598;2022-07-30T14:24:57;3.10;;;1.20;;
47657;SDS011;33958;48.404;10.598;2022-07-30T14:27:25;2.55;;;1.10;;
47657;SDS011;33958;48.404;10.598;2022-07-30T14:29:52;1.90;;;1.10;;
47657;SDS011;33958;48.404;10.598;2022-07-30T14:32:19;2.58;;;1.20;;
47657;SDS011;33958;48.404;10.598;2022-07-30T14:34:48;1.88;;;1.20;;
47657;SDS011;33958;48.404;10.598;2022-07-30T14:37:15;2.13;;;1.10;;
47657;SDS011;33958;48.404;10.598;2022-07-30T14:39:42;1.65;;;1.00;;
47657;SDS011;33958;48.404;10.598;2022-07-30T14:42:09;2.63;;;1.02;;
47657;SDS011;33958;48.404;10.598;2022-07-30T14:44:47;2.22;;;1.30;;
47657;SDS011;33958;48.404;10.598;2022-07-30T14:47:19;4.15;;;1.23;;
47657;SDS011;33958;48.404;10.598;2022-07-30T14:49:46;1.58;;;1.08;;
47657;SDS011;33958;48.404;10.598;2022-07-30T14:52:13;1.98;;;1.10;;
47657;SDS011;33958;48.404;10.598;2022-07-30T14:54:41;3.60;;;1.35;;
47657;SDS011;33958;48.404;10.598;2022-07-30T14:57:08;4.22;;;1.15;;
47657;SDS011;33958;48.404;10.598;2022-07-30T14:59:35;3.67;;;1.23;;
47657;SDS011;33958;48.404;10.598;2022-07-30T15:02:02;2.72;;;1.50;;
47657;SDS011;33958;48.404;10.598;2022-07-30T15:04:35;4.53;;;1.25;;
47657;SDS011;33958;48.404;10.598;2022-07-30T15:07:02;3.08;;;1.30;;
47657;SDS011;33958;48.404;10.598;2022-07-30T15:09:31;2.60;;;1.00;;
47657;SDS011;33958;48.404;10.598;2022-07-30T15:11:59;3.08;;;1.20;;
47657;SDS011;33958;48.404;10.598;2022-07-30T15:14:48;1.30;;;1.02;;
47657;SDS011;33958;48.404;10.598;2022-07-30T15:17:15;2.50;;;1.17;;
47657;SDS011;33958;48.404;10.598;2022-07-30T15:19:42;2.63;;;1.30;;
47657;SDS011;33958;48.404;10.598;2022-07-30T15:22:16;2.33;;;1.20;;
47657;SDS011;33958;48.404;10.598;2022-07-30T15:24:44;4.18;;;1.30;;
47657;SDS011;33958;48.404;10.598;2022-07-30T15:27:11;1.90;;;1.13;;
47657;SDS011;33958;48.404;10.598;2022-07-30T15:29:38;3.05;;;1.33;;
47657;SDS011;33958;48.404;10.598;2022-07-30T15:32:05;2.55;;;1.20;;
47657;SDS011;33958;48.404;10.598;2022-07-30T15:34:33;3.50;;;1.42;;